Time;durP1;ratioP1;P1;durP2;ratioP2;P2;SDS_P1;SDS_P2;PMS_P1;PMS_P2;Temp;Humidity;BMP_temperature;BMP_pressure;BME280_temperature;BME280_humidity;BME280_pressure;Samples;Min_cycle;Max_cycle;Signal;HPM_P1;HPM_P2
2021/07/04 00:01:19;;;;;;;0.60;0.57;;;;;;;;;;5092437;28;20056;-41
2021/07/04 00:03:44;;;;;;;1.05;0.40;;;;;;;;;;5092280;28;20020;-42
2021/07/04 00:06:09;;;;;;;0.80;0.63;;;;;;;;;;5092399;28;20073;-42
2021/07/04 00:08:35;;;;;;;3.65;0.60;;;;;;;;;;5092574;28;20024;-42
2021/07/04 00:11:02;;;;;;;0.82;0.50;;;;;;;;;;5092272;28;20474;-42
2021/07/04 00:13:28;;;;;;;0.80;0.50;;;;;;;;;;5107919;28;20016;-42
2021/07/04 00:15:54;;;;;;;5.82;0.57;;;;;;;;;;5092267;28;20115;-42
2021/07/04 00:18:20;;;;;;;2.05;0.65;;;;;;;;;;5092418;28;20081;-42
2021/07/04 00:20:47;;;;;;;0.40;0.35;;;;;;;;;;5092244;28;20390;-42
2021/07/04 00:23:12;;;;;;;0.50;0.45;;;;;;;;;;5092489;28;20028;-42
2021/07/04 00:25:38;;;;;;;0.63;0.40;;;;;;;;;;5092342;28;20024;-42
2021/07/04 00:28:04;;;;;;;0.50;0.50;;;;;;;;;;5092192;28;20020;-43
2021/07/04 00:30:29;;;;;;;0.95;0.40;;;;;;;;;;5092215;28;20467;-42
2021/07/04 00:32:55;;;;;;;1.27;0.60;;;;;;;;;;5092139;28;20044;-42
2021/07/04 00:35:21;;;;;;;0.75;0.60;;;;;;;;;;5092092;28;20039;-42
2021/07/04 00:37:47;;;;;;;1.25;0.77;;;;;;;;;;5092003;28;20454;-42
2021/07/04 00:40:13;;;;;;;3.28;0.77;;;;;;;;;;5092332;28;20038;-42
2021/07/04 00:42:39;;;;;;;2.70;0.50;;;;;;;;;;5090720;28;20012;-42
2021/07/04 00:45:10;;;;;;;0.77;0.60;;;;;;;;;;5092351;28;20088;-42
2021/07/04 00:47:36;;;;;;;0.50;0.50;;;;;;;;;;5090580;28;20111;-43
2021/07/04 00:50:02;;;;;;;1.40;0.50;;;;;;;;;;5091827;28;20605;-42
2021/07/04 00:52:28;;;;;;;0.52;0.38;;;;;;;;;;5092192;28;20084;-42
2021/07/04 00:54:53;;;;;;;2.75;0.70;;;;;;;;;;5107547;28;20115;-42
2021/07/04 00:57:19;;;;;;;0.93;0.50;;;;;;;;;;5091981;28;20382;-42
2021/07/04 00:59:45;;;;;;;1.10;0.52;;;;;;;;;;5111216;28;20024;-43
2021/07/04 01:02:11;;;;;;;1.02;0.98;;;;;;;;;;5095502;28;20038;-41
2021/07/04 01:04:36;;;;;;;3.08;0.88;;;;;;;;;;5095510;28;20091;-43
2021/07/04 01:07:02;;;;;;;2.10;0.55;;;;;;;;;;5111134;28;20066;-43
2021/07/04 01:09:28;;;;;;;0.70;0.70;;;;;;;;;;5095546;28;20027;-42
2021/07/04 01:11:53;;;;;;;1.35;0.70;;;;;;;;;;5111087;28;20025;-42
2021/07/04 01:14:21;;;;;;;1.35;0.57;;;;;;;;;;5095563;28;20099;-42
2021/07/04 01:16:47;;;;;;;1.45;1.00;;;;;;;;;;5093849;28;20122;-41
2021/07/04 01:19:16;;;;;;;0.55;0.52;;;;;;;;;;5095470;28;20020;-43
2021/07/04 01:21:42;;;;;;;0.50;0.50;;;;;;;;;;5093788;28;20032;-42
2021/07/04 01:24:08;;;;;;;0.52;0.43;;;;;;;;;;5093840;28;20017;-42
2021/07/04 01:26:33;;;;;;;3.67;0.80;;;;;;;;;;5094937;28;20546;-42
2021/07/04 01:28:59;;;;;;;0.70;0.65;;;;;;;;;;5095066;28;20546;-42
2021/07/04 01:31:26;;;;;;;2.13;1.00;;;;;;;;;;5093509;28;20040;-42
2021/07/04 01:34:01;;;;;;;1.05;0.73;;;;;;;;;;5093703;28;20462;-42
2021/07/04 01:36:31;;;;;;;1.83;1.00;;;;;;;;;;5093356;28;20035;-42
2021/07/04 01:38:56;;;;;;;1.73;0.70;;;;;;;;;;5110587;28;20020;-43
2021/07/04 01:41:22;;;;;;;1.33;0.73;;;;;;;;;;5094799;28;20036;-42
2021/07/04 01:43:50;;;;;;;0.93;0.82;;;;;;;;;;5094660;28;20020;-42
2021/07/04 01:46:17;;;;;;;6.32;0.90;;;;;;;;;;5110427;28;20024;-42
2021/07/04 01:48:43;;;;;;;5.00;0.70;;;;;;;;;;5094344;28;20111;-42
2021/07/04 01:51:16;;;;;;;3.30;1.23;;;;;;;;;;5110257;28;20032;-42
2021/07/04 01:53:42;;;;;;;3.83;0.70;;;;;;;;;;5110190;28;20089;-42
2021/07/04 01:56:14;;;;;;;;;;;;;;;;;;5093611;28;20024;-42
2021/07/04 01:58:46;;;;;;;4.22;0.90;;;;;;;;;;5094555;28;19918;-42
2021/07/04 02:01:16;;;;;;;1.50;0.77;;;;;;;;;;5110190;28;20062;-42
2021/07/04 02:03:42;;;;;;;0.98;0.70;;;;;;;;;;5093020;28;20052;-42
2021/07/04 02:06:13;;;;;;;0.68;0.60;;;;;;;;;;5092881;28;20031;-42
2021/07/04 02:08:41;;;;;;;2.72;0.60;;;;;;;;;;5109944;28;20024;-42
2021/07/04 02:11:09;;;;;;;1.95;0.88;;;;;;;;;;5092744;28;20032;-42
2021/07/04 02:13:34;;;;;;;0.90;0.80;;;;;;;;;;5094054;28;20020;-42
2021/07/04 02:16:03;;;;;;;0.68;0.68;;;;;;;;;;5094078;28;20020;-42
2021/07/04 02:18:41;;;;;;;1.38;0.88;;;;;;;;;;5092708;28;20031;-42
2021/07/04 02:21:27;;;;;;;0.98;0.60;;;;;;;;;;5093939;28;20031;-42
2021/07/04 02:24:04;;;;;;;1.42;0.60;;;;;;;;;;5094407;28;20044;-42
2021/07/04 02:26:35;;;;;;;2.00;0.82;;;;;;;;;;5094053;28;20036;-42
2021/07/04 02:29:10;;;;;;;1.10;0.95;;;;;;;;;;5092603;28;20028;-42
2021/07/04 02:31:40;;;;;;;0.90;0.70;;;;;;;;;;5109467;28;20469;-42
2021/07/04 02:34:09;;;;;;;0.60;0.60;;;;;;;;;;5092442;28;20474;-42
2021/07/04 02:36:44;;;;;;;2.85;0.68;;;;;;;;;;5092316;28;20088;-43
2021/07/04 02:39:20;;;;;;;0.70;0.70;;;;;;;;;;5092525;28;20078;-42
2021/07/04 02:41:48;;;;;;;0.70;0.70;;;;;;;;;;5109222;28;20123;-42
2021/07/04 02:44:17;;;;;;;2.22;0.70;;;;;;;;;;5093650;28;20055;-42
2021/07/04 02:46:44;;;;;;;1.63;0.88;;;;;;;;;;5093408;28;20031;-42
2021/07/04 02:49:10;;;;;;;5.18;1.25;;;;;;;;;;5091928;28;20040;-42
2021/07/04 02:51:38;;;;;;;2.65;0.80;;;;;;;;;;5109066;28;20032;-42
2021/07/04 02:54:03;;;;;;;2.05;0.75;;;;;;;;;;5109175;28;20069;-43
2021/07/04 02:56:29;;;;;;;0.50;0.50;;;;;;;;;;5093461;28;20097;-42
2021/07/04 02:58:55;;;;;;;0.50;0.50;;;;;;;;;;5092030;28;20466;-42
2021/07/04 03:01:22;;;;;;;2.95;0.90;;;;;;;;;;5108921;28;20036;-42
2021/07/04 03:03:49;;;;;;;1.35;0.80;;;;;;;;;;5093381;28;20483;-42
2021/07/04 03:06:16;;;;;;;0.55;0.55;;;;;;;;;;5091871;28;20035;-42
2021/07/04 03:08:43;;;;;;;0.95;0.85;;;;;;;;;;5093285;28;20024;-42
2021/07/04 03:11:11;;;;;;;1.98;1.35;;;;;;;;;;5093253;28;20036;-43
2021/07/04 03:13:37;;;;;;;1.27;0.60;;;;;;;;;;5091726;28;20016;-42
2021/07/04 03:16:03;;;;;;;1.45;0.95;;;;;;;;;;5091629;28;20563;-42
2021/07/04 03:18:29;;;;;;;1.48;0.82;;;;;;;;;;5091694;28;20074;-42
2021/07/04 03:20:56;;;;;;;2.47;1.40;;;;;;;;;;5091295;28;20031;-42
2021/07/04 03:23:22;;;;;;;1.23;0.80;;;;;;;;;;5092852;28;20523;-42
2021/07/04 03:25:52;;;;;;;1.10;1.00;;;;;;;;;;5108446;28;20527;-42
2021/07/04 03:28:18;;;;;;;1.02;0.90;;;;;;;;;;5108530;28;20032;-42
2021/07/04 03:30:45;;;;;;;2.95;0.73;;;;;;;;;;5091313;28;20035;-43
2021/07/04 03:33:11;;;;;;;0.93;0.90;;;;;;;;;;5108445;28;20025;-44
2021/07/04 03:35:37;;;;;;;1.63;0.80;;;;;;;;;;5091287;28;20066;-42
2021/07/04 03:38:06;;;;;;;0.95;0.85;;;;;;;;;;5074961;28;20439;-43
2021/07/04 03:40:31;;;;;;;0.77;0.77;;;;;;;;;;5091301;28;20112;-42
2021/07/04 03:43:06;;;;;;;1.42;0.95;;;;;;;;;;5091402;28;20119;-42
2021/07/04 03:45:36;;;;;;;1.20;0.80;;;;;;;;;;5091143;28;20070;-42
2021/07/04 03:48:04;;;;;;;0.80;0.80;;;;;;;;;;5091299;28;20073;-42
2021/07/04 03:50:39;;;;;;;4.07;1.10;;;;;;;;;;5092206;28;20080;-42
2021/07/04 03:53:05;;;;;;;2.60;0.55;;;;;;;;;;5092530;28;20054;-42
2021/07/04 03:55:32;;;;;;;1.02;0.70;;;;;;;;;;5108158;28;20031;-42
2021/07/04 03:57:58;;;;;;;1.25;0.80;;;;;;;;;;5092403;28;20494;-42
2021/07/04 04:00:39;;;;;;;1.45;0.77;;;;;;;;;;5092720;28;20035;-42
2021/07/04 04:03:10;;;;;;;1.80;1.10;;;;;;;;;;5091132;28;20028;-42
2021/07/04 04:05:47;;;;;;;3.47;1.10;;;;;;;;;;5090971;28;20066;-42
2021/07/04 04:08:13;;;;;;;1.88;0.75;;;;;;;;;;5091077;28;20054;-42
2021/07/04 04:10:42;;;;;;;0.80;0.80;;;;;;;;;;5092300;28;20028;-43
2021/07/04 04:13:13;;;;;;;15.25;1.63;;;;;;;;;;5092539;28;20028;-43
2021/07/04 04:15:39;;;;;;;1.45;0.88;;;;;;;;;;5092557;28;20043;-42
2021/07/04 04:18:05;;;;;;;1.50;0.82;;;;;;;;;;5092168;28;20024;-42
2021/07/04 04:20:32;;;;;;;1.13;0.82;;;;;;;;;;5090896;28;20060;-42
2021/07/04 04:22:59;;;;;;;0.98;0.80;;;;;;;;;;5092277;28;20012;-42
2021/07/04 04:25:26;;;;;;;1.10;0.63;;;;;;;;;;5107940;28;20027;-43
2021/07/04 04:27:53;;;;;;;0.50;0.50;;;;;;;;;;5090889;28;20018;-42
2021/07/04 04:30:19;;;;;;;1.23;0.50;;;;;;;;;;5092343;28;20036;-42
2021/07/04 04:32:47;;;;;;;1.75;0.75;;;;;;;;;;5094548;28;20012;-42
2021/07/04 04:35:13;;;;;;;1.17;0.63;;;;;;;;;;5096055;28;20123;-43
2021/07/04 04:37:38;;;;;;;0.65;0.65;;;;;;;;;;5095855;28;20019;-42
2021/07/04 04:40:05;;;;;;;0.73;0.73;;;;;;;;;;5096292;28;20107;-41
2021/07/04 04:42:30;;;;;;;1.35;0.80;;;;;;;;;;5096090;28;20030;-42
2021/07/04 04:44:55;;;;;;;1.40;1.10;;;;;;;;;;5095977;28;20032;-42
2021/07/04 04:47:21;;;;;;;0.80;0.80;;;;;;;;;;5095828;28;20430;-42
2021/07/04 04:49:46;;;;;;;1.98;0.82;;;;;;;;;;5095298;28;20044;-42
2021/07/04 04:52:11;;;;;;;1.80;0.80;;;;;;;;;;5096098;28;20172;-42
2021/07/04 04:54:37;;;;;;;0.82;0.73;;;;;;;;;;5095701;28;20028;-42
2021/07/04 04:57:07;;;;;;;1.02;0.93;;;;;;;;;;5077646;28;20424;-42
2021/07/04 04:59:36;;;;;;;0.98;0.90;;;;;;;;;;5095824;28;20393;-42
2021/07/04 05:02:02;;;;;;;1.77;0.60;;;;;;;;;;5095772;28;20024;-42
2021/07/04 05:04:27;;;;;;;0.75;0.57;;;;;;;;;;5095516;28;20031;-42
2021/07/04 05:06:53;;;;;;;2.47;0.70;;;;;;;;;;5095362;28;20012;-42
2021/07/04 05:09:18;;;;;;;1.15;0.80;;;;;;;;;;5095691;28;20109;-42
2021/07/04 05:11:44;;;;;;;1.52;1.05;;;;;;;;;;5095350;28;20482;-42
2021/07/04 05:14:11;;;;;;;1.17;0.90;;;;;;;;;;5077185;28;20103;-42
2021/07/04 05:16:36;;;;;;;2.10;0.60;;;;;;;;;;5093932;28;20024;-42
2021/07/04 05:19:05;;;;;;;3.38;0.80;;;;;;;;;;5110913;28;20035;-42
2021/07/04 05:21:31;;;;;;;1.15;1.02;;;;;;;;;;5095156;28;20107;-43
2021/07/04 05:23:57;;;;;;;3.58;0.82;;;;;;;;;;5095424;28;20478;-42
2021/07/04 05:26:22;;;;;;;4.22;0.93;;;;;;;;;;5095267;28;20077;-42
2021/07/04 05:28:47;;;;;;;1.33;1.23;;;;;;;;;;5093808;28;20064;-42
2021/07/04 05:31:13;;;;;;;1.40;1.30;;;;;;;;;;5094943;28;20028;-42
2021/07/04 05:33:38;;;;;;;1.35;0.80;;;;;;;;;;5093680;28;20031;-43
2021/07/04 05:36:04;;;;;;;3.80;0.90;;;;;;;;;;5094941;28;20051;-42
2021/07/04 05:38:33;;;;;;;4.22;1.30;;;;;;;;;;5093443;28;20039;-42
2021/07/04 05:40:58;;;;;;;0.90;0.80;;;;;;;;;;5110606;28;20020;-42
2021/07/04 05:43:24;;;;;;;1.65;1.08;;;;;;;;;;5093206;28;20474;-42
2021/07/04 05:45:50;;;;;;;1.83;0.77;;;;;;;;;;5110269;28;20028;-42
2021/07/04 05:48:15;;;;;;;1.10;0.90;;;;;;;;;;5094780;28;20028;-42
2021/07/04 05:50:41;;;;;;;4.43;1.40;;;;;;;;;;5094298;28;20048;-42
2021/07/04 05:53:06;;;;;;;3.05;1.15;;;;;;;;;;5110281;28;20119;-42
2021/07/04 05:55:31;;;;;;;5.13;2.35;;;;;;;;;;5094493;28;20024;-42
2021/07/04 05:57:57;;;;;;;6.95;2.72;;;;;;;;;;5094449;28;20020;-42
2021/07/04 06:00:22;;;;;;;7.00;2.55;;;;;;;;;;5094468;28;20024;-42
2021/07/04 06:02:48;;;;;;;4.72;2.03;;;;;;;;;;5094596;28;20115;-42
2021/07/04 06:05:15;;;;;;;2.30;1.60;;;;;;;;;;5094616;28;20020;-43
2021/07/04 06:07:40;;;;;;;5.53;1.98;;;;;;;;;;5094469;28;20048;-42
2021/07/04 06:10:06;;;;;;;2.25;1.40;;;;;;;;;;5094447;28;20474;-41
2021/07/04 06:12:31;;;;;;;2.60;1.33;;;;;;;;;;5109905;28;20039;-42
2021/07/04 06:14:56;;;;;;;3.50;1.80;;;;;;;;;;5094371;28;20039;-41
2021/07/04 06:17:22;;;;;;;2.30;1.45;;;;;;;;;;5094099;28;20028;-42
2021/07/04 06:19:47;;;;;;;2.22;1.15;;;;;;;;;;5094271;28;20024;-42
2021/07/04 06:22:12;;;;;;;2.25;1.45;;;;;;;;;;5094186;28;20077;-43
2021/07/04 06:24:38;;;;;;;1.65;1.25;;;;;;;;;;5094259;28;20613;-42
2021/07/04 06:27:03;;;;;;;1.15;1.05;;;;;;;;;;5093840;28;20110;-42
2021/07/04 06:29:29;;;;;;;1.40;1.15;;;;;;;;;;5094044;28;20023;-42
2021/07/04 06:31:54;;;;;;;1.55;1.00;;;;;;;;;;5094101;28;20051;-42
2021/07/04 06:34:19;;;;;;;1.38;1.20;;;;;;;;;;5093814;28;20020;-42
2021/07/04 06:36:45;;;;;;;1.45;1.13;;;;;;;;;;5093914;28;20063;-42
2021/07/04 06:39:10;;;;;;;1.90;1.50;;;;;;;;;;5093757;28;20024;-42
2021/07/04 06:41:36;;;;;;;1.90;1.30;;;;;;;;;;5093548;28;20447;-42
2021/07/04 06:44:02;;;;;;;1.85;1.15;;;;;;;;;;5092345;28;20054;-42
2021/07/04 06:46:28;;;;;;;1.10;1.00;;;;;;;;;;5093832;28;20034;-43
2021/07/04 06:48:53;;;;;;;3.47;1.08;;;;;;;;;;5093283;28;20020;-42
2021/07/04 06:51:18;;;;;;;1.55;0.90;;;;;;;;;;5093596;28;20036;-42
2021/07/04 06:53:44;;;;;;;1.70;1.20;;;;;;;;;;5093551;28;20449;-42
2021/07/04 06:56:09;;;;;;;2.67;1.00;;;;;;;;;;5092642;28;20028;-42
2021/07/04 06:58:35;;;;;;;1.48;0.95;;;;;;;;;;5093528;28;20012;-41
2021/07/04 07:01:00;;;;;;;10.15;1.33;;;;;;;;;;5093533;28;20039;-42
2021/07/04 07:03:25;;;;;;;1.08;0.73;;;;;;;;;;5093206;28;20015;-42
2021/07/04 07:05:51;;;;;;;2.60;1.17;;;;;;;;;;5093117;28;20035;-42
2021/07/04 07:08:16;;;;;;;2.20;1.23;;;;;;;;;;5093185;28;20102;-42
2021/07/04 07:10:41;;;;;;;2.55;0.90;;;;;;;;;;5093257;28;20035;-42
2021/07/04 07:13:07;;;;;;;1.70;1.00;;;;;;;;;;5093047;28;20016;-42
2021/07/04 07:15:35;;;;;;;1.17;1.08;;;;;;;;;;5091667;28;20088;-43
2021/07/04 07:18:01;;;;;;;3.03;1.10;;;;;;;;;;5093040;28;20012;-43
2021/07/04 07:20:26;;;;;;;1.08;0.90;;;;;;;;;;5093270;28;20107;-42
2021/07/04 07:22:52;;;;;;;1.00;0.93;;;;;;;;;;5108590;28;20512;-43
2021/07/04 07:25:24;;;;;;;1.40;1.10;;;;;;;;;;5091877;28;20032;-42
2021/07/04 07:27:53;;;;;;;1.63;1.13;;;;;;;;;;5091604;28;20085;-42
2021/07/04 07:30:18;;;;;;;3.65;1.35;;;;;;;;;;5092768;28;20024;-42
2021/07/04 07:32:44;;;;;;;2.10;1.27;;;;;;;;;;5091428;28;20032;-42
2021/07/04 07:35:09;;;;;;;2.33;1.35;;;;;;;;;;5092809;28;20098;-42
2021/07/04 07:37:36;;;;;;;2.50;1.63;;;;;;;;;;5091302;28;20423;-42
2021/07/04 07:40:02;;;;;;;5.28;1.75;;;;;;;;;;5092632;28;20112;-42
2021/07/04 07:42:30;;;;;;;3.67;1.40;;;;;;;;;;5108323;28;20390;-42
2021/07/04 07:44:55;;;;;;;3.30;1.30;;;;;;;;;;5092610;28;20077;-43
2021/07/04 07:47:20;;;;;;;1.80;1.50;;;;;;;;;;5092568;28;20059;-42
2021/07/04 07:49:46;;;;;;;1.67;1.42;;;;;;;;;;5092250;28;20048;-42
2021/07/04 07:52:11;;;;;;;3.50;1.65;;;;;;;;;;5092569;28;20103;-44
2021/07/04 07:54:40;;;;;;;2.08;1.42;;;;;;;;;;5092618;28;20016;-42
2021/07/04 07:57:07;;;;;;;3.60;1.40;;;;;;;;;;5091256;28;20046;-42
2021/07/04 07:59:36;;;;;;;1.85;1.52;;;;;;;;;;5091262;28;20506;-42
2021/07/04 08:02:02;;;;;;;3.67;1.38;;;;;;;;;;5091072;28;20119;-43
2021/07/04 08:04:27;;;;;;;1.65;1.10;;;;;;;;;;5092480;28;20019;-44
2021/07/04 08:06:53;;;;;;;1.85;1.65;;;;;;;;;;5094744;28;20099;-43
2021/07/04 08:09:19;;;;;;;4.85;1.20;;;;;;;;;;5095235;28;20016;-42
2021/07/04 08:11:46;;;;;;;2.45;1.10;;;;;;;;;;5096800;28;20035;-42
2021/07/04 08:14:12;;;;;;;4.68;1.35;;;;;;;;;;5095241;28;20283;-42
2021/07/04 08:16:43;;;;;;;5.70;1.58;;;;;;;;;;5096590;28;20036;-42
2021/07/04 08:19:08;;;;;;;2.45;1.40;;;;;;;;;;5095267;28;20078;-42
2021/07/04 08:21:34;;;;;;;1.92;1.13;;;;;;;;;;5096606;28;20370;-42
2021/07/04 08:23:59;;;;;;;1.58;1.13;;;;;;;;;;5096338;28;20470;-42
2021/07/04 08:26:24;;;;;;;2.80;1.17;;;;;;;;;;5096173;28;20028;-43
2021/07/04 08:28:50;;;;;;;2.05;1.05;;;;;;;;;;5096449;28;20027;-43
2021/07/04 08:31:15;;;;;;;2.35;1.23;;;;;;;;;;5096135;28;20508;-42
2021/07/04 08:33:41;;;;;;;2.45;1.00;;;;;;;;;;5096105;28;20039;-43
2021/07/04 08:36:06;;;;;;;1.67;1.25;;;;;;;;;;5096073;28;20519;-42
2021/07/04 08:38:32;;;;;;;1.30;1.15;;;;;;;;;;5096127;28;20077;-42
2021/07/04 08:40:57;;;;;;;3.50;0.80;;;;;;;;;;5096345;28;20020;-42
2021/07/04 08:43:26;;;;;;;1.05;0.88;;;;;;;;;;5095928;28;20070;-43
2021/07/04 08:45:52;;;;;;;2.00;1.15;;;;;;;;;;5095799;28;20081;-42
2021/07/04 08:48:17;;;;;;;2.63;1.55;;;;;;;;;;5095877;28;20036;-42
2021/07/04 08:50:43;;;;;;;1.73;0.98;;;;;;;;;;5095382;28;20055;-42
2021/07/04 08:53:08;;;;;;;2.42;0.93;;;;;;;;;;5096078;28;20089;-43
2021/07/04 08:55:33;;;;;;;1.58;0.98;;;;;;;;;;5095987;28;20024;-42
2021/07/04 08:57:59;;;;;;;1.55;1.20;;;;;;;;;;5095920;28;20506;-42
2021/07/04 09:00:25;;;;;;;1.55;1.20;;;;;;;;;;5095703;28;20374;-42
2021/07/04 09:02:51;;;;;;;1.33;1.20;;;;;;;;;;5095730;28;20439;-43
2021/07/04 09:05:17;;;;;;;2.47;0.80;;;;;;;;;;5095539;28;20107;-42
2021/07/04 09:07:43;;;;;;;4.40;0.90;;;;;;;;;;5094169;28;20035;-42
2021/07/04 09:10:13;;;;;;;1.17;0.80;;;;;;;;;;5095646;28;20064;-43
2021/07/04 09:12:43;;;;;;;1.00;0.90;;;;;;;;;;5095261;28;20402;-42
2021/07/04 09:15:13;;;;;;;2.13;1.08;;;;;;;;;;5095271;28;20039;-42
2021/07/04 09:17:39;;;;;;;1.05;0.95;;;;;;;;;;5094444;28;20032;-42
2021/07/04 09:20:07;;;;;;;1.02;0.93;;;;;;;;;;5095157;28;20031;-42
2021/07/04 09:22:35;;;;;;;0.95;0.93;;;;;;;;;;5095124;28;20027;-42
2021/07/04 09:25:06;;;;;;;2.00;1.25;;;;;;;;;;5095266;28;20051;-43
2021/07/04 09:27:31;;;;;;;2.78;1.52;;;;;;;;;;5095268;28;20406;-42
2021/07/04 09:29:56;;;;;;;1.10;1.00;;;;;;;;;;5094916;28;20016;-41
2021/07/04 09:32:26;;;;;;;2.72;1.40;;;;;;;;;;5094974;28;20093;-42
2021/07/04 09:35:00;;;;;;;1.52;1.15;;;;;;;;;;5094943;28;20024;-42
2021/07/04 09:37:38;;;;;;;3.75;1.30;;;;;;;;;;5094857;28;20050;-42
2021/07/04 09:40:21;;;;;;;3.13;1.13;;;;;;;;;;5094880;28;20032;-42
2021/07/04 09:42:57;;;;;;;3.22;1.30;;;;;;;;;;5094700;28;20032;-42
2021/07/04 09:45:23;;;;;;;1.13;1.00;;;;;;;;;;5095090;28;20032;-43
2021/07/04 09:47:55;;;;;;;2.05;1.20;;;;;;;;;;5094605;28;20035;-42
2021/07/04 09:50:21;;;;;;;1.83;0.80;;;;;;;;;;5094490;28;20055;-42
2021/07/04 09:52:59;;;;;;;1.30;1.17;;;;;;;;;;5094495;28;20032;-42
2021/07/04 09:55:25;;;;;;;1.50;0.98;;;;;;;;;;5094459;28;20036;-42
2021/07/04 09:57:55;;;;;;;1.30;1.20;;;;;;;;;;5076337;28;20023;-42
2021/07/04 10:00:21;;;;;;;0.80;0.80;;;;;;;;;;5094535;28;20031;-42
2021/07/04 10:03:13;;;;;;;1.40;0.98;;;;;;;;;;5094245;28;20024;-42
2021/07/04 10:05:54;;;;;;;1.08;1.00;;;;;;;;;;5092262;28;20126;-42
2021/07/04 10:08:21;;;;;;;1.70;1.05;;;;;;;;;;5094374;28;20036;-42
2021/07/04 10:10:47;;;;;;;1.38;0.88;;;;;;;;;;5094098;28;20378;-42
2021/07/04 10:13:12;;;;;;;2.10;0.80;;;;;;;;;;5094277;28;20123;-42
2021/07/04 10:15:39;;;;;;;1.05;0.82;;;;;;;;;;5092745;28;20024;-42
2021/07/04 10:18:04;;;;;;;1.58;1.00;;;;;;;;;;5094118;28;20016;-42
2021/07/04 10:20:30;;;;;;;0.70;0.70;;;;;;;;;;5094165;28;20023;-42
2021/07/04 10:22:56;;;;;;;0.73;0.73;;;;;;;;;;5093979;28;20039;-43
2021/07/04 10:25:21;;;;;;;1.02;0.80;;;;;;;;;;5093824;28;20027;-42
2021/07/04 10:27:48;;;;;;;1.05;0.88;;;;;;;;;;5093878;28;20024;-42
2021/07/04 10:30:14;;;;;;;1.08;0.90;;;;;;;;;;5093081;28;20457;-42
2021/07/04 10:32:59;;;;;;;0.90;0.90;;;;;;;;;;5093817;28;20024;-42
2021/07/04 10:35:24;;;;;;;1.00;0.80;;;;;;;;;;5093623;28;20028;-42
2021/07/04 10:37:50;;;;;;;1.55;0.90;;;;;;;;;;5093700;28;20020;-42
2021/07/04 10:40:17;;;;;;;0.80;0.77;;;;;;;;;;5093727;28;20386;-44
2021/07/04 10:42:43;;;;;;;1.67;1.08;;;;;;;;;;5093512;28;20028;-42
2021/07/04 10:45:27;;;;;;;1.10;0.90;;;;;;;;;;5093618;28;20103;-43
2021/07/04 10:47:55;;;;;;;2.42;1.02;;;;;;;;;;5093742;28;20916;-43
2021/07/04 10:50:21;;;;;;;1.83;1.05;;;;;;;;;;5093411;28;20044;-42
2021/07/04 10:52:51;;;;;;;0.75;0.75;;;;;;;;;;5093269;28;20470;-43
2021/07/04 10:55:31;;;;;;;0.73;0.73;;;;;;;;;;5093438;28;20070;-42
2021/07/04 10:57:57;;;;;;;6.85;1.13;;;;;;;;;;5093266;28;20114;-43
2021/07/04 11:00:33;;;;;;;1.40;0.75;;;;;;;;;;5093270;28;20363;-42
2021/07/04 11:03:00;;;;;;;1.15;0.90;;;;;;;;;;5093266;28;20020;-42
2021/07/04 11:05:41;;;;;;;1.02;0.80;;;;;;;;;;5093459;28;20114;-43
2021/07/04 11:08:09;;;;;;;2.20;0.80;;;;;;;;;;5093146;28;20017;-42
2021/07/04 11:10:34;;;;;;;2.15;1.60;;;;;;;;;;5093311;28;20036;-42
2021/07/04 11:13:09;;;;;;;1.33;0.82;;;;;;;;;;5093376;28;20470;-42
2021/07/04 11:15:36;;;;;;;1.80;1.00;;;;;;;;;;5093024;28;20030;-42
2021/07/04 11:18:02;;;;;;;0.77;0.77;;;;;;;;;;5093342;28;20008;-42
2021/07/04 11:20:44;;;;;;;0.80;0.80;;;;;;;;;;5091690;28;20036;-42
2021/07/04 11:23:09;;;;;;;1.30;1.20;;;;;;;;;;5108681;28;20025;-42
2021/07/04 11:25:37;;;;;;;1.80;1.30;;;;;;;;;;5092800;28;20089;-42
2021/07/04 11:28:15;;;;;;;1.73;1.10;;;;;;;;;;5092821;28;20490;-43
2021/07/04 11:30:41;;;;;;;3.40;0.88;;;;;;;;;;5092987;28;20040;-42
2021/07/04 11:33:21;;;;;;;1.88;1.02;;;;;;;;;;5092861;28;20481;-42
2021/07/04 11:35:46;;;;;;;1.50;1.20;;;;;;;;;;5092573;28;20031;-43
2021/07/04 11:38:19;;;;;;;1.73;0.98;;;;;;;;;;5091524;28;20023;-42
2021/07/04 11:40:46;;;;;;;2.17;1.08;;;;;;;;;;5091257;28;20028;-42
2021/07/04 11:43:15;;;;;;;1.20;1.08;;;;;;;;;;5091066;28;20474;-42
2021/07/04 11:45:53;;;;;;;0.95;0.77;;;;;;;;;;5091212;28;20038;-42
2021/07/04 11:48:19;;;;;;;1.40;1.02;;;;;;;;;;5092691;28;20024;-43
2021/07/04 11:50:51;;;;;;;1.35;1.13;;;;;;;;;;5092261;28;20048;-43
2021/07/04 11:53:19;;;;;;;1.70;1.30;;;;;;;;;;5072328;28;20055;-42
2021/07/04 11:56:03;;;;;;;1.33;1.23;;;;;;;;;;5072105;28;20115;-42
2021/07/04 11:58:29;;;;;;;1.42;1.23;;;;;;;;;;5072386;28;20032;-41
2021/07/04 12:00:55;;;;;;;2.97;1.38;;;;;;;;;;5072478;28;20044;-42
2021/07/04 12:03:25;;;;;;;1.75;1.40;;;;;;;;;;5072241;28;20544;-42
2021/07/04 12:05:51;;;;;;;1.40;1.30;;;;;;;;;;5072112;28;20031;-42
2021/07/04 12:08:17;;;;;;;2.13;1.02;;;;;;;;;;5072254;28;20074;-42
2021/07/04 12:10:49;;;;;;;1.77;1.40;;;;;;;;;;5072064;28;20032;-42
2021/07/04 12:13:15;;;;;;;1.63;1.40;;;;;;;;;;5072212;28;20099;-42
2021/07/04 12:15:40;;;;;;;2.95;1.60;;;;;;;;;;5072091;28;20059;-41
2021/07/04 12:18:15;;;;;;;1.65;1.30;;;;;;;;;;5072340;28;20055;-42
2021/07/04 12:20:41;;;;;;;1.35;1.15;;;;;;;;;;5072069;28;20028;-42
2021/07/04 12:23:09;;;;;;;1.35;1.10;;;;;;;;;;5070921;28;20100;-42
2021/07/04 12:25:42;;;;;;;1.55;1.35;;;;;;;;;;5072194;28;20040;-43
2021/07/04 12:28:08;;;;;;;;;;;;;;;;;;5072477;28;20111;-42
2021/07/04 12:30:44;;;;;;;3.30;1.60;;;;;;;;;;5071877;28;20007;-42
2021/07/04 12:33:16;;;;;;;1.23;1.13;;;;;;;;;;5071954;28;20123;-42
2021/07/04 12:35:43;;;;;;;3.33;1.52;;;;;;;;;;5071867;28;20029;-42
2021/07/04 12:38:15;;;;;;;4.28;1.75;;;;;;;;;;5071963;28;20054;-42
2021/07/04 12:41:00;;;;;;;2.70;1.80;;;;;;;;;;5071734;28;20111;-42
2021/07/04 12:43:29;;;;;;;1.35;1.10;;;;;;;;;;5072207;28;20082;-46
2021/07/04 12:45:56;;;;;;;2.35;1.48;;;;;;;;;;5071753;28;20059;-43
2021/07/04 12:48:23;;;;;;;2.17;1.77;;;;;;;;;;5071855;28;20028;-42
2021/07/04 12:50:56;;;;;;;1.75;1.65;;;;;;;;;;5071420;28;20075;-42
2021/07/04 12:53:32;;;;;;;1.60;1.50;;;;;;;;;;5073347;28;20025;-42
2021/07/04 12:55:58;;;;;;;1.75;1.25;;;;;;;;;;5075358;28;20050;-42
2021/07/04 12:58:25;;;;;;;1.63;1.20;;;;;;;;;;5075747;28;20455;-42
2021/07/04 13:00:51;;;;;;;2.33;1.15;;;;;;;;;;5075188;28;20031;-42
2021/07/04 13:03:35;;;;;;;1.27;1.15;;;;;;;;;;5075302;28;20367;-43
2021/07/04 13:06:01;;;;;;;1.75;1.65;;;;;;;;;;5091180;28;20040;-43
2021/07/04 13:08:26;;;;;;;5.40;1.10;;;;;;;;;;5074020;28;20021;-42
2021/07/04 13:10:51;;;;;;;1.58;1.48;;;;;;;;;;5075161;28;20041;-42
2021/07/04 13:13:17;;;;;;;2.83;1.15;;;;;;;;;;5075203;28;20535;-42
2021/07/04 13:15:42;;;;;;;1.38;1.23;;;;;;;;;;5075164;28;20035;-42
2021/07/04 13:18:07;;;;;;;1.60;1.50;;;;;;;;;;5075336;28;20534;-42
2021/07/04 13:20:33;;;;;;;1.45;1.30;;;;;;;;;;5075053;28;20555;-42
2021/07/04 13:22:58;;;;;;;1.40;1.30;;;;;;;;;;5074896;28;20012;-42
2021/07/04 13:25:31;;;;;;;2.47;1.63;;;;;;;;;;5074818;28;20367;-42
2021/07/04 13:27:58;;;;;;;3.33;2.45;;;;;;;;;;5073505;28;20115;-43
2021/07/04 13:30:23;;;;;;;2.10;1.52;;;;;;;;;;5075012;28;20114;-42
2021/07/04 13:33:01;;;;;;;1.63;1.50;;;;;;;;;;5075068;28;20044;-42
2021/07/04 13:35:29;;;;;;;1.98;1.60;;;;;;;;;;5074962;28;20024;-42
2021/07/04 13:37:59;;;;;;;4.18;1.92;;;;;;;;;;5074740;28;20413;-41
2021/07/04 13:40:25;;;;;;;4.93;3.67;;;;;;;;;;5074622;28;20390;-43
2021/07/04 13:42:53;;;;;;;1.75;1.65;;;;;;;;;;5074532;28;20087;-42
2021/07/04 13:45:26;;;;;;;5.75;1.35;;;;;;;;;;5074543;28;20032;-43
2021/07/04 13:47:56;;;;;;;3.92;1.40;;;;;;;;;;5074405;28;20029;-42
2021/07/04 13:50:22;;;;;;;2.55;1.25;;;;;;;;;;5074248;28;20083;-42
2021/07/04 13:52:47;;;;;;;1.52;1.42;;;;;;;;;;5074327;28;20479;-43
2021/07/04 13:55:13;;;;;;;1.20;1.10;;;;;;;;;;5074415;28;20028;-42
2021/07/04 13:57:38;;;;;;;1.75;1.65;;;;;;;;;;5074263;28;20028;-42
2021/07/04 14:00:05;;;;;;;2.15;1.63;;;;;;;;;;5074393;28;20019;-41
2021/07/04 14:02:30;;;;;;;1.73;1.50;;;;;;;;;;5074328;28;20064;-41
2021/07/04 14:04:56;;;;;;;2.92;1.50;;;;;;;;;;5073751;28;20102;-41
2021/07/04 14:07:21;;;;;;;2.45;1.42;;;;;;;;;;5073425;28;20032;-42
2021/07/04 14:09:47;;;;;;;2.92;1.70;;;;;;;;;;5072723;28;20056;-43
2021/07/04 14:12:12;;;;;;;1.67;1.58;;;;;;;;;;5073865;28;20517;-42
2021/07/04 14:14:37;;;;;;;2.22;1.50;;;;;;;;;;5072834;28;20071;-42
2021/07/04 14:17:03;;;;;;;1.60;1.50;;;;;;;;;;5073829;28;20055;-42
2021/07/04 14:19:30;;;;;;;2.63;2.00;;;;;;;;;;5074126;28;20016;-42
2021/07/04 14:21:55;;;;;;;21.30;2.65;;;;;;;;;;5074109;28;20421;-42
2021/07/04 14:24:21;;;;;;;4.43;1.65;;;;;;;;;;5074090;28;20020;-42
2021/07/04 14:26:46;;;;;;;1.88;1.60;;;;;;;;;;5073602;28;20104;-42
2021/07/04 14:29:13;;;;;;;1.40;1.30;;;;;;;;;;5073729;28;20077;-42
2021/07/04 14:31:40;;;;;;;2.10;1.90;;;;;;;;;;5073565;28;20028;-43
2021/07/04 14:34:05;;;;;;;1.58;1.48;;;;;;;;;;5073852;28;20020;-43
2021/07/04 14:36:31;;;;;;;2.55;1.90;;;;;;;;;;5072290;28;20526;-42
2021/07/04 14:38:56;;;;;;;1.65;1.55;;;;;;;;;;5073456;28;20039;-49
2021/07/04 14:41:21;;;;;;;2.72;1.85;;;;;;;;;;5073453;28;20506;-49
2021/07/04 14:43:47;;;;;;;1.52;1.42;;;;;;;;;;5073507;28;20024;-50
2021/07/04 14:46:12;;;;;;;6.30;1.75;;;;;;;;;;5073533;28;20424;-50